Dades meteomassalio
Diari Summary for Gener 26, 2018 Units:  English    Metric   Both
« Previous Day
Next Day »
Diari Semanal Mensual Anual Personalitzat
  Maxima: Minima: Mijana:
Temperatura: TemperatureC °F 5.0 °F 5.8 °F
Rosada: DewpointC °F 2.7 °F 4.1 °F
Humitat: Humidity % 78 % 89 %
Velocitat del vent: WindSpeedKMH mph 0.0 mph 27.2 mph
Racha vent: WindSpeedGustKMH mph - -
Vent:- - NW
Pressio: PressurehPa in 1016.8 in -
Pluja: 21.8 in    
Historical Graphs
 
 
Tabular Data for Gener 26, 2018
Time Temperature Dew Point Pressure Wind Wind Speed Wind Gust Humidity Rainfall Rate (Hourly) solar Conditions
TemperatureC °F DewpointC °F PressurehPa in Calm     Humidity % HourlyPrecipMM in SolarRadiationWatts/m^2 W/m2 Conditions
00:03 8.3 °F 6.9 °F 1018.5 in North 24.1 mph 24.1 mph 91 % 1.5 in 0.0 W/m2 RA
00:08 8.3 °F 6.9 °F 1018.5 in North 22.2 mph 22.2 mph 91 % 1.5 in 0.0 W/m2 RA
00:13 8.3 °F 6.9 °F 1018.8 in North 37.0 mph 37.0 mph 91 % 1.3 in 0.0 W/m2
00:18 7.8 °F 6.4 °F 1018.5 in NNW 35.2 mph 35.2 mph 91 % 1.0 in 0.0 W/m2 CLR
00:23 7.8 °F 6.4 °F 1018.5 in NNW 33.3 mph 33.3 mph 91 % 0.8 in 0.0 W/m2 CLR
00:28 7.2 °F 5.8 °F 1018.5 in NNW 31.5 mph 31.5 mph 91 % 0.5 in 0.0 W/m2 CLR
00:33 7.2 °F 5.8 °F 1018.8 in North 35.2 mph 35.2 mph 91 % 0.5 in 0.0 W/m2 CLR
00:38 7.2 °F 5.8 °F 1018.5 in North 33.3 mph 33.3 mph 91 % 0.5 in 0.0 W/m2 CLR
00:43 7.2 °F 5.8 °F 1018.5 in NNW 29.6 mph 29.6 mph 91 % 0.5 in 0.0 W/m2 CLR
00:48 7.2 °F 5.8 °F 1018.5 in NNW 35.2 mph 35.2 mph 91 % 0.5 in 0.0 W/m2 CLR
00:53 6.7 °F 5.3 °F 1018.5 in North 35.2 mph 35.2 mph 91 % 0.5 in 0.0 W/m2 RA
00:58 6.7 °F 5.3 °F 1018.5 in NW 37.0 mph 37.0 mph 91 % 0.5 in 0.0 W/m2
01:03 6.7 °F 5.3 °F 1018.5 in NNW 24.1 mph 24.1 mph 91 % 0.5 in 0.0 W/m2 CLR
01:08 6.7 °F 5.3 °F 1018.5 in NW 33.3 mph 33.3 mph 91 % 0.3 in 0.0 W/m2 CLR
01:13 6.7 °F 5.3 °F 1018.5 in NNW 38.9 mph 38.9 mph 91 % 0.5 in 0.0 W/m2 RA
01:18 6.7 °F 5.3 °F 1018.5 in North 29.6 mph 29.6 mph 91 % 0.5 in 0.0 W/m2
01:23 6.1 °F 4.8 °F 1018.5 in NNW 31.5 mph 31.5 mph 91 % 0.5 in 0.0 W/m2 CLR
01:28 6.1 °F 4.8 °F 1018.2 in NNW 25.7 mph 25.7 mph 91 % 0.5 in 0.0 W/m2 RA
01:33 6.1 °F 4.8 °F 1018.5 in NW 29.6 mph 29.6 mph 91 % 0.5 in 0.0 W/m2
01:38 6.1 °F 4.8 °F 1018.2 in NW 31.5 mph 31.5 mph 91 % 0.8 in 0.0 W/m2 RA
01:43 6.1 °F 4.8 °F 1018.5 in NNW 29.6 mph 29.6 mph 91 % 1.0 in 0.0 W/m2 RA
01:48 6.1 °F 4.8 °F 1018.2 in NNW 31.5 mph 31.5 mph 91 % 1.3 in 0.0 W/m2 RA
01:53 6.1 °F 4.8 °F 1018.2 in NW 27.4 mph 27.4 mph 91 % 1.3 in 0.0 W/m2 RA
01:58 6.1 °F 4.8 °F 1018.2 in NW 31.5 mph 31.5 mph 91 % 1.3 in 0.0 W/m2
02:03 6.1 °F 4.8 °F 1018.2 in NNW 33.3 mph 33.3 mph 91 % 1.5 in 0.0 W/m2 RA
02:08 5.6 °F 4.2 °F 1018.2 in NW 24.1 mph 24.1 mph 91 % 1.5 in 0.0 W/m2
02:14 5.6 °F 4.2 °F 1018.5 in NNW 29.6 mph 29.6 mph 91 % 1.5 in 0.0 W/m2 RA
02:19 5.6 °F 4.2 °F 1018.2 in NW 24.1 mph 24.1 mph 91 % 1.5 in 0.0 W/m2
02:24 5.6 °F 4.2 °F 1018.5 in NNW 25.9 mph 25.9 mph 91 % 1.5 in 0.0 W/m2 CLR
02:29 5.6 °F 4.2 °F 1018.5 in NW 22.2 mph 22.2 mph 91 % 1.3 in 0.0 W/m2 CLR
02:34 5.6 °F 4.2 °F 1018.5 in NW 18.5 mph 18.5 mph 91 % 1.3 in 0.0 W/m2 CLR
02:39 5.6 °F 4.2 °F 1018.5 in NW 20.9 mph 20.9 mph 91 % 1.3 in 0.0 W/m2 RA
02:44 5.6 °F 4.2 °F 1018.5 in NW 22.2 mph 22.2 mph 91 % 1.0 in 0.0 W/m2 CLR
02:49 5.6 °F 4.2 °F 1018.2 in NW 16.7 mph 16.7 mph 91 % 0.8 in 0.0 W/m2 CLR
02:54 5.6 °F 4.2 °F 1018.2 in NNW 20.9 mph 20.9 mph 91 % 0.5 in 0.0 W/m2 CLR
02:59 5.6 °F 4.2 °F 1017.8 in WNW 27.8 mph 27.8 mph 91 % 0.5 in 0.0 W/m2 CLR
03:04 5.6 °F 4.2 °F 1017.8 in NW 20.4 mph 20.4 mph 91 % 0.5 in 0.0 W/m2 RA
03:09 5.6 °F 4.2 °F 1017.8 in NW 18.5 mph 18.5 mph 91 % 0.5 in 0.0 W/m2
03:14 5.6 °F 4.2 °F 1017.8 in NNW 18.5 mph 18.5 mph 91 % 0.5 in 0.0 W/m2 CLR
03:19 5.6 °F 4.2 °F 1018.2 in NW 20.4 mph 20.4 mph 91 % 0.5 in 0.0 W/m2 CLR
03:24 5.6 °F 4.2 °F 1017.8 in NW 18.5 mph 18.5 mph 91 % 0.5 in 0.0 W/m2 CLR
03:29 5.6 °F 4.2 °F 1017.8 in NW 20.9 mph 20.9 mph 91 % 0.5 in 0.0 W/m2 CLR
03:34 5.6 °F 4.2 °F 1017.8 in WNW 20.9 mph 20.9 mph 91 % 0.5 in 0.0 W/m2 CLR
03:39 5.6 °F 4.2 °F 1017.8 in WNW 22.2 mph 22.2 mph 91 % 0.3 in 0.0 W/m2 CLR
03:44 5.6 °F 4.2 °F 1017.8 in WNW 20.4 mph 20.4 mph 91 % 0.3 in 0.0 W/m2 CLR
03:49 5.6 °F 4.2 °F 1018.2 in NW 22.5 mph 22.5 mph 91 % 0.3 in 0.0 W/m2 CLR
03:54 5.6 °F 4.2 °F 1018.2 in WNW 27.8 mph 27.8 mph 91 % 0.3 in 0.0 W/m2 CLR
03:59 5.6 °F 4.2 °F 1017.8 in NW 20.9 mph 20.9 mph 91 % 0.3 in 0.0 W/m2 CLR
04:04 5.6 °F 4.2 °F 1017.8 in NW 20.9 mph 20.9 mph 91 % 0.0 in 0.0 W/m2 CLR
04:09 5.6 °F 4.2 °F 1017.8 in NW 25.9 mph 25.9 mph 91 % 0.0 in 0.0 W/m2 CLR
04:14 5.6 °F 4.2 °F 1017.8 in NNW 20.4 mph 20.4 mph 91 % 0.3 in 0.0 W/m2 RA
04:19 5.6 °F 4.2 °F 1017.8 in NNW 25.9 mph 25.9 mph 91 % 0.3 in 0.0 W/m2
04:24 5.6 °F 4.2 °F 1017.8 in WNW 24.1 mph 24.1 mph 91 % 0.3 in 0.0 W/m2 CLR
04:29 5.6 °F 4.2 °F 1017.8 in WNW 18.5 mph 18.5 mph 91 % 0.3 in 0.0 W/m2 CLR
04:34 5.6 °F 4.1 °F 1017.5 in NW 25.9 mph 25.9 mph 90 % 0.5 in 0.0 W/m2 RA
04:39 5.6 °F 4.1 °F 1017.5 in North 22.2 mph 22.2 mph 90 % 0.5 in 0.0 W/m2 CLR
04:44 5.6 °F 4.2 °F 1017.5 in NNW 29.6 mph 29.6 mph 91 % 0.5 in 0.0 W/m2 CLR
04:49 5.6 °F 4.2 °F 1017.5 in NNW 22.2 mph 22.2 mph 91 % 0.5 in 0.0 W/m2 CLR
04:54 5.6 °F 4.2 °F 1017.5 in NW 18.5 mph 18.5 mph 91 % 0.5 in 0.0 W/m2 CLR
04:59 5.6 °F 4.2 °F 1017.5 in NW 22.2 mph 22.2 mph 91 % 0.5 in 0.0 W/m2 CLR
05:04 5.6 °F 4.2 °F 1017.5 in NNW 18.5 mph 18.5 mph 91 % 0.5 in 0.0 W/m2 CLR
05:09 5.6 °F 4.2 °F 1017.5 in NNW 20.9 mph 20.9 mph 91 % 0.5 in 0.0 W/m2 CLR
05:14 5.6 °F 4.2 °F 1017.5 in NNW 20.9 mph 20.9 mph 91 % 0.3 in 0.0 W/m2 CLR
05:19 5.6 °F 4.2 °F 1017.5 in NW 18.5 mph 18.5 mph 91 % 0.3 in 0.0 W/m2 CLR
05:24 5.6 °F 4.2 °F 1017.8 in NW 18.5 mph 18.5 mph 91 % 0.5 in 0.0 W/m2 RA
05:29 5.6 °F 4.2 °F 1017.8 in NW 20.4 mph 20.4 mph 91 % 0.5 in 0.0 W/m2 CLR
05:34 5.6 °F 4.2 °F 1017.2 in NW 18.5 mph 18.5 mph 91 % 0.3 in 0.0 W/m2 CLR
05:39 5.6 °F 4.2 °F 1017.2 in NNW 16.7 mph 16.7 mph 91 % 0.3 in 0.0 W/m2 CLR
05:44 5.6 °F 4.2 °F 1017.2 in NNW 14.8 mph 14.8 mph 91 % 0.3 in 0.0 W/m2 CLR
05:49 5.6 °F 4.2 °F 1017.2 in NNW 22.2 mph 22.2 mph 91 % 0.5 in 0.0 W/m2 RA
05:54 5.6 °F 4.2 °F 1017.2 in NNW 18.5 mph 18.5 mph 91 % 0.5 in 0.0 W/m2 CLR
05:59 5.6 °F 4.2 °F 1017.2 in NW 25.9 mph 25.9 mph 91 % 0.5 in 0.0 W/m2 CLR
06:04 5.6 °F 4.2 °F 1017.5 in NW 22.2 mph 22.2 mph 91 % 0.5 in 0.0 W/m2 CLR
06:09 5.6 °F 4.2 °F 1017.2 in NW 30.6 mph 30.6 mph 91 % 0.5 in 0.0 W/m2 RA
06:14 5.6 °F 4.2 °F 1016.8 in North 22.2 mph 22.2 mph 91 % 0.5 in 0.0 W/m2
06:19 5.6 °F 4.2 °F 1016.8 in NW 22.2 mph 22.2 mph 91 % 0.5 in 0.0 W/m2 CLR
06:24 5.6 °F 4.3 °F 1016.8 in NNW 27.8 mph 27.8 mph 92 % 0.5 in 0.0 W/m2 CLR
06:29 5.6 °F 4.3 °F 1016.8 in NNW 22.2 mph 22.2 mph 92 % 0.5 in 0.0 W/m2 RA
06:34 5.6 °F 4.3 °F 1016.8 in NNW 31.5 mph 31.5 mph 92 % 0.5 in 0.0 W/m2 CLR
06:39 5.6 °F 4.3 °F 1017.2 in NNW 25.9 mph 25.9 mph 92 % 0.5 in 0.0 W/m2 CLR
06:44 5.6 °F 4.3 °F 1017.5 in North 24.1 mph 24.1 mph 92 % 0.5 in 0.0 W/m2 CLR
06:49 5.6 °F 4.3 °F 1017.5 in NNW 30.6 mph 30.6 mph 92 % 0.5 in 0.0 W/m2 CLR
06:54 5.6 °F 4.3 °F 1017.8 in NW 25.9 mph 25.9 mph 92 % 0.5 in 0.0 W/m2 CLR
06:59 5.6 °F 4.3 °F 1017.5 in North 35.2 mph 35.2 mph 92 % 0.5 in 0.0 W/m2 RA
07:04 5.6 °F 4.3 °F 1017.5 in North 24.1 mph 24.1 mph 92 % 0.5 in 0.0 W/m2
07:09 5.6 °F 4.3 °F 1017.8 in NNW 29.6 mph 29.6 mph 92 % 0.5 in 0.0 W/m2 CLR
07:14 5.6 °F 4.3 °F 1017.8 in NNW 25.9 mph 25.9 mph 92 % 0.5 in 0.0 W/m2 RA
07:19 5.6 °F 4.3 °F 1017.5 in North 29.6 mph 29.6 mph 92 % 0.5 in 0.0 W/m2 CLR
07:24 5.6 °F 4.3 °F 1017.5 in NNW 25.9 mph 25.9 mph 92 % 0.8 in 0.0 W/m2 RA
07:29 5.6 °F 4.3 °F 1017.5 in NNW 31.5 mph 31.5 mph 92 % 0.5 in 0.0 W/m2
07:34 5.0 °F 3.8 °F 1017.5 in NNW 31.5 mph 31.5 mph 92 % 0.5 in 0.0 W/m2 CLR
07:39 5.0 °F 3.7 °F 1017.8 in North 30.6 mph 30.6 mph 91 % 0.5 in 0.0 W/m2 CLR
07:44 5.0 °F 3.8 °F 1017.8 in NNW 27.8 mph 27.8 mph 92 % 0.8 in 0.0 W/m2 RA
07:49 5.0 °F 3.8 °F 1017.8 in NW 24.1 mph 24.1 mph 92 % 0.8 in 0.0 W/m2 CLR
07:54 5.0 °F 3.8 °F 1017.8 in North 29.6 mph 29.6 mph 92 % 0.8 in 0.0 W/m2 CLR
08:00 5.0 °F 3.8 °F 1018.2 in NW 29.0 mph 29.0 mph 92 % 0.8 in 0.0 W/m2 RA
08:05 5.0 °F 3.8 °F 1017.8 in NNW 31.5 mph 31.5 mph 92 % 1.0 in 0.0 W/m2 RA
08:10 5.0 °F 3.8 °F 1017.8 in NNW 24.1 mph 24.1 mph 92 % 1.0 in 0.0 W/m2
08:15 5.0 °F 3.8 °F 1017.8 in NW 31.5 mph 31.5 mph 92 % 1.0 in 0.0 W/m2 RA
08:20 5.0 °F 3.8 °F 1017.8 in NNW 35.2 mph 35.2 mph 92 % 1.0 in 0.0 W/m2
08:25 5.0 °F 3.8 °F 1017.8 in NNW 38.9 mph 38.9 mph 92 % 1.0 in 0.0 W/m2 RA
08:30 5.0 °F 3.8 °F 1017.8 in NNW 31.5 mph 31.5 mph 92 % 1.3 in 0.0 W/m2 RA
08:35 5.0 °F 3.8 °F 1018.2 in North 35.4 mph 35.4 mph 92 % 1.3 in 0.0 W/m2
08:40 5.0 °F 3.8 °F 1018.2 in North 35.2 mph 35.2 mph 92 % 1.5 in 0.0 W/m2 RA
08:45 5.0 °F 3.8 °F 1018.2 in NW 30.6 mph 30.6 mph 92 % 1.3 in 0.0 W/m2 CLR
08:50 5.0 °F 3.8 °F 1018.2 in NW 31.5 mph 31.5 mph 92 % 1.5 in 0.0 W/m2 RA
08:55 5.0 °F 3.8 °F 1018.5 in NNW 27.8 mph 27.8 mph 92 % 1.5 in 7.0 W/m2 RA
09:00 5.0 °F 3.8 °F 1018.5 in NW 22.2 mph 22.2 mph 92 % 1.5 in 5.0 W/m2 RA
09:05 5.0 °F 3.8 °F 1018.5 in North 25.9 mph 25.9 mph 92 % 1.5 in 7.0 W/m2 RA
09:10 5.0 °F 3.8 °F 1018.5 in NW 20.4 mph 20.4 mph 92 % 1.8 in 9.0 W/m2 RA
09:15 5.0 °F 3.8 °F 1018.5 in North 33.3 mph 33.3 mph 92 % 1.8 in 12.0 W/m2 RA
09:20 5.0 °F 3.8 °F 1018.8 in NNW 32.2 mph 32.2 mph 92 % 2.0 in 14.0 W/m2 RA
09:25 5.0 °F 3.8 °F 1018.8 in NW 31.5 mph 31.5 mph 92 % 2.0 in 16.0 W/m2 RA
09:30 5.0 °F 3.8 °F 1018.5 in North 22.2 mph 22.2 mph 92 % 1.8 in 21.0 W/m2 BKN
09:35 5.0 °F 3.8 °F 1018.8 in NW 31.5 mph 31.5 mph 92 % 2.3 in 23.0 W/m2 RA
09:40 5.0 °F 3.8 °F 1018.8 in North 27.8 mph 27.8 mph 92 % 2.3 in 19.0 W/m2 RA
09:45 5.0 °F 3.8 °F 1018.8 in NNW 35.2 mph 35.2 mph 92 % 2.3 in 19.0 W/m2 RA
09:50 5.0 °F 3.8 °F 1018.8 in NNW 27.8 mph 27.8 mph 92 % 2.5 in 19.0 W/m2 RA
09:55 5.0 °F 3.8 °F 1018.8 in NNW 27.8 mph 27.8 mph 92 % 2.5 in 21.0 W/m2 RA
10:00 5.0 °F 3.8 °F 1019.2 in NW 29.6 mph 29.6 mph 92 % 2.5 in 25.0 W/m2 RA
10:05 5.0 °F 3.8 °F 1019.2 in NNW 22.2 mph 22.2 mph 92 % 2.5 in 32.0 W/m2 RA
10:10 5.0 °F 3.8 °F 1019.2 in North 29.0 mph 29.0 mph 92 % 2.5 in 42.0 W/m2 RA
10:15 5.0 °F 3.8 °F 1019.2 in NNW 29.6 mph 29.6 mph 92 % 2.5 in 46.0 W/m2 RA
10:20 5.0 °F 3.8 °F 1019.2 in NNW 27.8 mph 27.8 mph 92 % 2.8 in 44.0 W/m2 RA
10:25 5.0 °F 3.8 °F 1019.2 in NNW 24.1 mph 24.1 mph 92 % 2.8 in 42.0 W/m2 RA
10:30 5.0 °F 3.8 °F 1019.2 in NW 31.5 mph 31.5 mph 92 % 2.8 in 37.0 W/m2 BKN
10:35 5.0 °F 3.8 °F 1019.2 in NNW 31.5 mph 31.5 mph 92 % 2.5 in 30.0 W/m2 RA
10:40 5.0 °F 3.8 °F 1019.2 in NNW 33.8 mph 33.8 mph 92 % 2.5 in 30.0 W/m2 RA
10:45 5.0 °F 3.8 °F 1019.2 in NNW 35.2 mph 35.2 mph 92 % 2.5 in 30.0 W/m2 RA
10:50 5.0 °F 3.8 °F 1019.5 in NNW 27.8 mph 27.8 mph 92 % 2.3 in 32.0 W/m2 RA
10:55 5.0 °F 3.8 °F 1019.5 in NNW 35.2 mph 35.2 mph 92 % 2.3 in 32.0 W/m2 RA
11:00 5.0 °F 3.8 °F 1019.5 in NNW 35.2 mph 35.2 mph 92 % 2.3 in 32.0 W/m2 RA
11:05 5.0 °F 3.8 °F 1019.9 in NW 37.0 mph 37.0 mph 92 % 2.5 in 33.0 W/m2 RA
11:10 5.0 °F 3.7 °F 1019.9 in NW 35.2 mph 35.2 mph 91 % 2.5 in 35.0 W/m2 RA
11:15 5.0 °F 3.8 °F 1019.9 in NNW 37.0 mph 37.0 mph 92 % 2.5 in 35.0 W/m2 RA
11:20 5.0 °F 3.8 °F 1019.9 in NW 31.5 mph 31.5 mph 92 % 2.3 in 33.0 W/m2 RA
11:25 5.0 °F 3.8 °F 1020.2 in NW 37.0 mph 37.0 mph 92 % 2.3 in 33.0 W/m2 RA
11:30 5.0 °F 3.8 °F 1020.2 in NNW 31.5 mph 31.5 mph 92 % 2.5 in 32.0 W/m2 RA
11:35 5.0 °F 3.8 °F 1020.2 in North 37.0 mph 37.0 mph 92 % 2.5 in 30.0 W/m2 RA
11:40 5.0 °F 3.7 °F 1020.2 in NNW 42.6 mph 42.6 mph 91 % 2.5 in 32.0 W/m2 RA
11:45 5.0 °F 3.7 °F 1020.2 in NW 38.9 mph 38.9 mph 91 % 2.5 in 35.0 W/m2 RA
11:50 5.0 °F 3.7 °F 1020.2 in NNW 33.3 mph 33.3 mph 91 % 2.5 in 37.0 W/m2 RA
11:55 5.0 °F 3.7 °F 1020.5 in NNW 40.7 mph 40.7 mph 91 % 2.5 in 37.0 W/m2 RA
12:00 5.0 °F 3.7 °F 1020.5 in North 27.8 mph 27.8 mph 91 % 2.5 in 37.0 W/m2 RA
12:05 5.0 °F 3.7 °F 1020.5 in NW 27.8 mph 27.8 mph 91 % 2.3 in 40.0 W/m2 RA
12:10 5.0 °F 3.7 °F 1020.5 in NNW 22.2 mph 22.2 mph 91 % 2.3 in 40.0 W/m2 RA
12:15 5.0 °F 3.7 °F 1020.5 in NNW 31.5 mph 31.5 mph 91 % 2.3 in 42.0 W/m2 RA
12:20 5.6 °F 4.2 °F 1020.5 in NW 20.4 mph 20.4 mph 91 % 2.3 in 40.0 W/m2 RA
12:25 5.6 °F 4.3 °F 1020.5 in NNW 25.9 mph 25.9 mph 92 % 2.3 in 40.0 W/m2 RA
12:30 5.6 °F 4.3 °F 1020.5 in NNW 25.9 mph 25.9 mph 92 % 2.3 in 37.0 W/m2 RA
12:35 5.6 °F 4.3 °F 1020.5 in NNW 31.5 mph 31.5 mph 92 % 2.3 in 32.0 W/m2 BKN
12:40 5.6 °F 4.3 °F 1020.5 in NNW 29.6 mph 29.6 mph 92 % 2.3 in 28.0 W/m2 RA
12:45 5.6 °F 4.3 °F 1020.5 in NNW 25.9 mph 25.9 mph 92 % 2.3 in 28.0 W/m2 RA
12:50 5.6 °F 4.3 °F 1020.5 in NNW 31.5 mph 31.5 mph 92 % 2.3 in 28.0 W/m2 RA
12:55 5.6 °F 4.2 °F 1020.5 in North 24.1 mph 24.1 mph 91 % 2.0 in 26.0 W/m2 BKN
13:00 5.6 °F 4.3 °F 1020.5 in NNW 22.2 mph 22.2 mph 92 % 2.3 in 23.0 W/m2 RA
13:05 5.6 °F 4.3 °F 1020.5 in NNW 27.8 mph 27.8 mph 92 % 2.3 in 21.0 W/m2 RA
13:10 5.6 °F 4.2 °F 1020.5 in NNW 18.5 mph 18.5 mph 91 % 2.3 in 23.0 W/m2 RA
13:15 5.6 °F 4.3 °F 1020.5 in NW 19.3 mph 19.3 mph 92 % 2.3 in 23.0 W/m2 RA
13:20 5.6 °F 4.3 °F 1020.5 in NNW 22.2 mph 22.2 mph 92 % 2.0 in 25.0 W/m2 BKN
13:25 5.6 °F 4.3 °F 1020.5 in NNW 24.1 mph 24.1 mph 92 % 2.0 in 26.0 W/m2 RA
13:30 5.6 °F 4.3 °F 1020.5 in North 25.9 mph 25.9 mph 92 % 1.8 in 25.0 W/m2 BKN
13:35 6.1 °F 4.8 °F 1020.5 in North 30.6 mph 30.6 mph 91 % 2.0 in 23.0 W/m2 RA
13:40 6.1 °F 4.8 °F 1020.5 in North 35.2 mph 35.2 mph 91 % 2.0 in 25.0 W/m2 RA
13:45 6.1 °F 4.6 °F 1020.5 in NNW 24.1 mph 24.1 mph 90 % 2.0 in 26.0 W/m2 RA
13:50 6.1 °F 4.6 °F 1020.5 in NW 18.5 mph 18.5 mph 90 % 1.8 in 28.0 W/m2 BKN
13:55 6.1 °F 4.6 °F 1020.5 in North 22.2 mph 22.2 mph 90 % 2.0 in 28.0 W/m2 RA
14:00 6.1 °F 4.6 °F 1020.5 in North 18.5 mph 18.5 mph 90 % 1.8 in 26.0 W/m2 RA
14:05 6.1 °F 4.6 °F 1020.5 in NNW 20.4 mph 20.4 mph 90 % 1.8 in 25.0 W/m2 RA
14:10 6.1 °F 4.6 °F 1020.5 in NNW 18.5 mph 18.5 mph 90 % 1.8 in 19.0 W/m2 RA
14:15 6.1 °F 4.6 °F 1020.5 in North 31.5 mph 31.5 mph 90 % 1.8 in 25.0 W/m2 RA
14:20 6.1 °F 4.6 °F 1020.5 in North 14.8 mph 14.8 mph 90 % 2.3 in 21.0 W/m2 RA
14:25 6.1 °F 4.6 °F 1020.5 in North 20.4 mph 20.4 mph 90 % 2.3 in 25.0 W/m2 RA
14:30 6.1 °F 4.6 °F 1020.5 in NNW 8.0 mph 8.0 mph 90 % 2.3 in 26.0 W/m2 RA
14:35 6.1 °F 4.6 °F 1020.5 in NNW 11.1 mph 11.1 mph 90 % 2.3 in 25.0 W/m2 RA
14:40 6.1 °F 4.6 °F 1020.5 in North 13.0 mph 13.0 mph 90 % 2.3 in 28.0 W/m2 RA
14:45 6.1 °F 4.8 °F 1020.5 in NNW 9.3 mph 9.3 mph 91 % 2.5 in 30.0 W/m2 RA
14:50 6.1 °F 4.6 °F 1020.5 in Calm     90 % 2.8 in 30.0 W/m2 RA
14:55 6.1 °F 4.8 °F 1020.5 in Calm     91 % 2.5 in 33.0 W/m2 BKN
15:00 6.1 °F 4.8 °F 1020.5 in Calm     91 % 2.5 in 37.0 W/m2 RA
15:05 6.1 °F 4.8 °F 1020.5 in Calm     91 % 2.3 in 39.0 W/m2 BKN
15:10 6.1 °F 4.8 °F 1020.5 in Calm   1.9 mph 91 % 2.3 in 46.0 W/m2 BKN
15:15 6.1 °F 4.8 °F 1020.5 in Calm     91 % 2.3 in 46.0 W/m2 RA
15:20 6.1 °F 4.8 °F 1020.5 in NNW 13.0 mph 13.0 mph 91 % 2.0 in 44.0 W/m2 RA
15:25 6.7 °F 5.2 °F 1020.5 in NW 14.8 mph 14.8 mph 90 % 1.8 in 44.0 W/m2 BKN
15:30 6.7 °F 5.2 °F 1020.5 in NNW 22.2 mph 22.2 mph 90 % 1.5 in 47.0 W/m2 BKN
15:35 6.7 °F 5.0 °F 1020.5 in North 18.5 mph 18.5 mph 89 % 1.5 in 44.0 W/m2 SCT
15:40 6.7 °F 4.8 °F 1020.9 in North 20.4 mph 20.4 mph 88 % 1.5 in 46.0 W/m2 RA
15:45 7.2 °F 5.4 °F 1020.9 in NNW 29.6 mph 29.6 mph 88 % 1.0 in 51.0 W/m2 SCT
15:50 7.2 °F 5.2 °F 1020.9 in North 24.1 mph 24.1 mph 87 % 0.8 in 47.0 W/m2 SCT
15:55 7.2 °F 5.2 °F 1020.9 in North 24.1 mph 24.1 mph 87 % 0.8 in 46.0 W/m2 SCT
16:00 7.2 °F 5.1 °F 1020.9 in North 29.6 mph 29.6 mph 86 % 0.5 in 44.0 W/m2 SCT
16:05 7.2 °F 4.9 °F 1020.9 in North 22.2 mph 22.2 mph 85 % 0.5 in 42.0 W/m2 BKN
16:10 7.2 °F 4.9 °F 1020.9 in North 22.2 mph 22.2 mph 85 % 0.5 in 49.0 W/m2 BKN
16:15 7.2 °F 4.9 °F 1020.9 in NNE 18.5 mph 18.5 mph 85 % 0.5 in 65.0 W/m2 SCT
16:20 7.2 °F 4.9 °F 1020.9 in North 19.3 mph 19.3 mph 85 % 0.3 in 72.0 W/m2 SCT
16:25 7.2 °F 4.9 °F 1020.9 in NNW 22.2 mph 22.2 mph 85 % 0.5 in 77.0 W/m2 RA
16:30 7.2 °F 4.9 °F 1020.9 in North 19.3 mph 19.3 mph 85 % 0.5 in 70.0 W/m2 FEW
16:35 7.2 °F 4.9 °F 1020.9 in North 20.4 mph 20.4 mph 85 % 0.5 in 62.0 W/m2 FEW
16:41 7.2 °F 4.9 °F 1021.2 in North 18.5 mph 18.5 mph 85 % 0.3 in 54.0 W/m2 SCT
16:46 7.2 °F 4.9 °F 1021.2 in North 20.9 mph 20.9 mph 85 % 0.3 in 49.0 W/m2 SCT
16:51 7.2 °F 4.9 °F 1020.9 in North 16.7 mph 16.7 mph 85 % 0.3 in 40.0 W/m2 SCT
16:56 7.2 °F 4.9 °F 1021.2 in North 18.5 mph 18.5 mph 85 % 0.5 in 33.0 W/m2 RA
17:01 7.2 °F 4.7 °F 1021.2 in North 20.9 mph 20.9 mph 84 % 0.5 in 28.0 W/m2 BKN
17:06 7.2 °F 4.7 °F 1021.2 in NNW 18.5 mph 18.5 mph 84 % 0.5 in 28.0 W/m2 BKN
17:11 7.2 °F 4.5 °F 1021.2 in North 20.4 mph 20.4 mph 83 % 0.5 in 30.0 W/m2 BKN
17:16 7.2 °F 4.3 °F 1021.2 in NNW 27.8 mph 27.8 mph 82 % 0.5 in 28.0 W/m2 BKN
17:21 7.2 °F 4.2 °F 1021.2 in North 25.9 mph 25.9 mph 81 % 0.5 in 25.0 W/m2 BKN
17:26 7.2 °F 4.0 °F 1021.2 in North 20.4 mph 20.4 mph 80 % 0.3 in 19.0 W/m2 BKN
17:31 7.2 °F 4.2 °F 1021.6 in North 22.2 mph 22.2 mph 81 % 0.3 in 14.0 W/m2 BKN
17:36 7.2 °F 4.2 °F 1021.6 in NNW 20.9 mph 20.9 mph 81 % 0.3 in 11.0 W/m2 BKN
17:41 6.7 °F 3.8 °F 1021.6 in North 27.8 mph 27.8 mph 82 % 0.3 in 7.0 W/m2 BKN
17:46 6.7 °F 4.0 °F 1021.6 in North 29.0 mph 29.0 mph 83 % 0.5 in 7.0 W/m2 RA
17:51 6.7 °F 4.2 °F 1021.9 in North 25.9 mph 25.9 mph 84 % 0.5 in 5.0 W/m2 CLR
17:56 6.7 °F 4.2 °F 1021.9 in North 25.9 mph 25.9 mph 84 % 0.3 in 0.0 W/m2 OVC
18:01 7.2 °F 4.7 °F 1021.9 in NNW 24.1 mph 24.1 mph 84 % 0.3 in 0.0 W/m2 OVC
18:06 6.7 °F 4.2 °F 1021.9 in NNW 29.6 mph 29.6 mph 84 % 0.3 in 0.0 W/m2 OVC
18:11 6.7 °F 4.2 °F 1021.9 in NNW 22.2 mph 22.2 mph 84 % 0.3 in 0.0 W/m2 OVC
18:16 6.7 °F 4.2 °F 1021.9 in NNW 25.9 mph 25.9 mph 84 % 0.3 in 0.0 W/m2 OVC
18:21 6.7 °F 4.0 °F 1021.9 in NW 22.2 mph 22.2 mph 83 % 0.3 in 0.0 W/m2 CLR
18:26 6.7 °F 4.0 °F 1021.9 in NNW 29.6 mph 29.6 mph 83 % 0.3 in 0.0 W/m2 CLR
18:31 6.7 °F 3.8 °F 1022.2 in NNW 27.8 mph 27.8 mph 82 % 0.3 in 0.0 W/m2 CLR
18:36 6.7 °F 3.8 °F 1022.2 in NNW 24.1 mph 24.1 mph 82 % 0.3 in 0.0 W/m2 CLR
18:41 6.7 °F 3.8 °F 1022.2 in NNW 31.5 mph 31.5 mph 82 % 0.3 in 0.0 W/m2 CLR
18:46 7.2 °F 4.0 °F 1022.2 in NNW 24.1 mph 24.1 mph 80 % 0.0 in 0.0 W/m2 CLR
18:51 7.2 °F 3.8 °F 1022.6 in NNW 44.4 mph 44.4 mph 79 % 0.0 in 0.0 W/m2 CLR
18:56 7.2 °F 3.7 °F 1022.6 in NNW 33.3 mph 33.3 mph 78 % 0.0 in 0.0 W/m2 CLR
19:01 7.2 °F 3.7 °F 1022.6 in NW 31.5 mph 31.5 mph 78 % 0.0 in 0.0 W/m2 CLR
19:06 7.2 °F 3.7 °F 1022.6 in NW 27.8 mph 27.8 mph 78 % 0.0 in 0.0 W/m2 CLR
19:11 7.2 °F 3.8 °F 1022.9 in NW 18.5 mph 18.5 mph 79 % 0.0 in 0.0 W/m2 CLR
19:16 7.2 °F 4.2 °F 1022.9 in NW 29.6 mph 29.6 mph 81 % 0.0 in 0.0 W/m2 CLR
19:21 7.2 °F 4.2 °F 1022.9 in NW 24.1 mph 24.1 mph 81 % 0.0 in 0.0 W/m2 CLR
19:26 6.7 °F 3.8 °F 1022.9 in NW 25.9 mph 25.9 mph 82 % 0.0 in 0.0 W/m2 CLR
19:31 6.7 °F 3.8 °F 1022.9 in NW 29.6 mph 29.6 mph 82 % 0.0 in 0.0 W/m2 CLR
19:36 6.7 °F 3.8 °F 1022.9 in NNW 29.6 mph 29.6 mph 82 % 0.0 in 0.0 W/m2 CLR
19:41 6.7 °F 4.0 °F 1023.2 in WNW 29.6 mph 29.6 mph 83 % 0.0 in 0.0 W/m2 CLR
19:46 6.7 °F 4.0 °F 1023.2 in NNW 22.5 mph 22.5 mph 83 % 0.0 in 0.0 W/m2 CLR
19:51 6.1 °F 3.6 °F 1023.2 in NNW 31.5 mph 31.5 mph 84 % 0.0 in 0.0 W/m2 CLR
19:56 6.1 °F 3.6 °F 1023.6 in NNW 33.3 mph 33.3 mph 84 % 0.0 in 0.0 W/m2 CLR
20:01 6.1 °F 3.6 °F 1023.6 in NNW 25.9 mph 25.9 mph 84 % 0.0 in 0.0 W/m2 CLR
20:06 6.1 °F 3.6 °F 1023.6 in NW 29.6 mph 29.6 mph 84 % 0.0 in 0.0 W/m2 CLR
20:11 6.1 °F 3.6 °F 1023.6 in NNW 27.8 mph 27.8 mph 84 % 0.0 in 0.0 W/m2 CLR
20:16 6.1 °F 3.6 °F 1023.6 in North 33.3 mph 33.3 mph 84 % 0.0 in 0.0 W/m2 CLR
20:21 6.1 °F 3.6 °F 1023.6 in NW 31.5 mph 31.5 mph 84 % 0.0 in 0.0 W/m2 CLR
20:26 5.6 °F 3.1 °F 1023.6 in NNW 31.5 mph 31.5 mph 84 % 0.0 in 0.0 W/m2 CLR
20:31 5.6 °F 3.2 °F 1023.9 in NNW 30.6 mph 30.6 mph 85 % 0.0 in 0.0 W/m2 CLR
20:36 5.6 °F 3.1 °F 1023.9 in NNW 38.9 mph 38.9 mph 84 % 0.0 in 0.0 W/m2 CLR
20:41 5.6 °F 3.2 °F 1023.9 in North 37.0 mph 37.0 mph 85 % 0.0 in 0.0 W/m2 CLR
20:46 5.6 °F 3.2 °F 1023.9 in NNW 44.4 mph 44.4 mph 85 % 0.0 in 0.0 W/m2 CLR
20:51 5.6 °F 3.2 °F 1023.9 in NNW 31.5 mph 31.5 mph 85 % 0.0 in 0.0 W/m2 CLR
20:56 5.6 °F 3.2 °F 1023.9 in NNW 37.0 mph 37.0 mph 85 % 0.0 in 0.0 W/m2 CLR
21:01 5.6 °F 3.2 °F 1023.9 in NW 38.9 mph 38.9 mph 85 % 0.0 in 0.0 W/m2 CLR
21:06 5.6 °F 3.2 °F 1024.3 in NW 40.7 mph 40.7 mph 85 % 0.0 in 0.0 W/m2 CLR
21:11 5.6 °F 3.2 °F 1024.3 in NW 37.0 mph 37.0 mph 85 % 0.0 in 0.0 W/m2 CLR
21:16 5.6 °F 3.2 °F 1024.3 in NNW 38.9 mph 38.9 mph 85 % 0.0 in 0.0 W/m2 CLR
21:21 5.6 °F 3.4 °F 1024.3 in NW 40.7 mph 40.7 mph 86 % 0.0 in 0.0 W/m2 CLR
21:26 5.6 °F 3.4 °F 1024.3 in NW 37.0 mph 37.0 mph 86 % 0.0 in 0.0 W/m2 CLR
21:31 5.6 °F 3.2 °F 1024.3 in NNW 37.0 mph 37.0 mph 85 % 0.0 in 0.0 W/m2 CLR
21:36 5.6 °F 3.2 °F 1024.3 in NW 37.0 mph 37.0 mph 85 % 0.0 in 0.0 W/m2 CLR
21:41 5.6 °F 3.2 °F 1024.3 in NW 42.6 mph 42.6 mph 85 % 0.0 in 0.0 W/m2 CLR
21:46 5.6 °F 3.2 °F 1024.3 in NNW 40.2 mph 40.2 mph 85 % 0.0 in 0.0 W/m2 CLR
21:51 5.6 °F 3.2 °F 1024.6 in NW 32.2 mph 32.2 mph 85 % 0.0 in 0.0 W/m2 CLR
21:56 5.6 °F 3.2 °F 1024.6 in NNW 37.0 mph 37.0 mph 85 % 0.0 in 0.0 W/m2 CLR
22:01 5.6 °F 3.4 °F 1024.6 in NW 33.3 mph 33.3 mph 86 % 0.0 in 0.0 W/m2 CLR
22:06 5.6 °F 3.2 °F 1024.6 in NNW 33.8 mph 33.8 mph 85 % 0.0 in 0.0 W/m2 CLR
22:11 5.6 °F 3.4 °F 1024.6 in NNW 33.3 mph 33.3 mph 86 % 0.0 in 0.0 W/m2 CLR
22:16 5.6 °F 3.2 °F 1024.9 in NNW 40.7 mph 40.7 mph 85 % 0.0 in 0.0 W/m2 CLR
22:21 5.6 °F 3.4 °F 1024.6 in North 35.2 mph 35.2 mph 86 % 0.0 in 0.0 W/m2 CLR
22:26 5.6 °F 3.4 °F 1024.9 in NW 35.2 mph 35.2 mph 86 % 0.0 in 0.0 W/m2 CLR
22:31 5.6 °F 3.2 °F 1024.9 in NW 37.0 mph 37.0 mph 85 % 0.0 in 0.0 W/m2 CLR
22:36 5.6 °F 3.2 °F 1024.9 in NNW 33.3 mph 33.3 mph 85 % 0.0 in 0.0 W/m2 CLR
22:41 5.6 °F 3.2 °F 1025.3 in NW 33.3 mph 33.3 mph 85 % 0.0 in 0.0 W/m2 CLR
22:46 5.0 °F 2.7 °F 1025.3 in NW 40.7 mph 40.7 mph 85 % 0.0 in 0.0 W/m2 CLR
22:51 5.0 °F 2.7 °F 1025.3 in NW 38.9 mph 38.9 mph 85 % 0.0 in 0.0 W/m2 CLR
22:56 5.0 °F 2.7 °F 1025.3 in NNW 40.7 mph 40.7 mph 85 % 0.0 in 0.0 W/m2 CLR
23:01 5.0 °F 2.8 °F 1025.3 in NW 38.9 mph 38.9 mph 86 % 0.0 in 0.0 W/m2 CLR
23:06 5.0 °F 2.8 °F 1025.3 in NNW 33.3 mph 33.3 mph 86 % 0.0 in 0.0 W/m2 CLR
23:11 5.0 °F 2.8 °F 1025.3 in NNW 40.7 mph 40.7 mph 86 % 0.0 in 0.0 W/m2 CLR
23:17 5.0 °F 2.7 °F 1025.3 in NW 46.3 mph 46.3 mph 85 % 0.0 in 0.0 W/m2 CLR
23:21 5.0 °F 2.7 °F 1025.3 in NW 37.0 mph 37.0 mph 85 % 0.0 in 0.0 W/m2 CLR
23:27 5.0 °F 2.7 °F 1025.6 in NNW 38.9 mph 38.9 mph 85 % 0.0 in 0.0 W/m2 CLR
23:32 5.0 °F 2.7 °F 1025.3 in NNW 31.5 mph 31.5 mph 85 % 0.0 in 0.0 W/m2 CLR
23:37 5.0 °F 2.7 °F 1025.6 in NW 31.5 mph 31.5 mph 85 % 0.0 in 0.0 W/m2 CLR
23:42 5.0 °F 2.7 °F 1026.0 in NNW 40.7 mph 40.7 mph 85 % 0.0 in 0.0 W/m2 CLR
23:47 5.0 °F 2.7 °F 1026.0 in NNW 27.8 mph 27.8 mph 85 % 0.0 in 0.0 W/m2 CLR
23:52 5.0 °F 2.7 °F 1026.0 in NW 33.3 mph 33.3 mph 85 % 0.0 in 0.0 W/m2 CLR
23:57 5.0 °F 2.7 °F 1026.0 in NNW 38.9 mph 38.9 mph 85 % 0.0 in 0.0 W/m2 CLR
Lo Temps de Massalio
Compliments of Weather Underground - 1.25 mb